createdAt,value
2023-01-19T00:00:54.742Z,18.57
2023-01-19T00:03:21.747Z,25.07
2023-01-19T00:05:48.737Z,26.97
2023-01-19T00:08:15.889Z,22.63
2023-01-19T00:10:45.071Z,28.30
2023-01-19T00:13:12.482Z,33.70
2023-01-19T00:15:39.358Z,24.33
2023-01-19T00:18:06.300Z,21.03
2023-01-19T00:20:35.414Z,17.57
2023-01-19T00:23:03.428Z,21.57
2023-01-19T00:25:30.328Z,19.93
2023-01-19T00:27:57.287Z,19.90
2023-01-19T00:30:24.470Z,19.13
2023-01-19T00:32:51.328Z,16.00
2023-01-19T00:35:18.326Z,15.60
2023-01-19T00:37:46.024Z,16.93
2023-01-19T00:40:13.999Z,18.57
2023-01-19T00:42:41.093Z,18.93
2023-01-19T00:45:09.060Z,20.47
2023-01-19T00:47:35.900Z,17.37
2023-01-19T00:50:02.969Z,17.37
2023-01-19T00:52:29.634Z,18.40
2023-01-19T00:54:56.289Z,19.27
2023-01-19T00:57:23.494Z,17.10
2023-01-19T00:59:50.371Z,16.13
2023-01-19T01:02:17.393Z,14.97
2023-01-19T01:04:44.266Z,15.33
2023-01-19T01:07:10.968Z,14.23
2023-01-19T01:09:37.786Z,14.73
2023-01-19T01:12:04.578Z,15.63
2023-01-19T01:14:32.938Z,17.73
2023-01-19T01:17:00.563Z,18.67
2023-01-19T01:19:27.467Z,15.60
2023-01-19T01:21:55.439Z,14.50
2023-01-19T01:24:22.807Z,14.80
2023-01-19T01:26:49.532Z,15.10
2023-01-19T01:29:16.260Z,20.00
2023-01-19T01:31:42.978Z,16.00
2023-01-19T01:34:09.807Z,20.47
2023-01-19T01:36:36.586Z,16.83
2023-01-19T01:39:03.705Z,14.73
2023-01-19T01:41:30.871Z,14.80
2023-01-19T01:43:58.862Z,14.83
2023-01-19T01:46:27.923Z,14.93
2023-01-19T01:49:16.506Z,15.20
2023-01-19T01:51:51.220Z,13.47
2023-01-19T01:54:32.135Z,15.10
2023-01-19T01:57:04.991Z,17.10
2023-01-19T01:59:39.374Z,16.03
2023-01-19T02:02:35.972Z,12.33
2023-01-19T02:05:07.705Z,12.60
2023-01-19T02:08:13.350Z,11.53
2023-01-19T02:11:00.771Z,16.30
2023-01-19T02:13:30.003Z,10.40
2023-01-19T02:16:00.963Z,11.17
2023-01-19T02:18:29.799Z,12.47
2023-01-19T02:21:14.479Z,12.97
2023-01-19T02:23:48.176Z,11.70
2023-01-19T02:26:38.143Z,14.93
2023-01-19T02:29:08.676Z,9.30
2023-01-19T02:31:37.272Z,10.37
2023-01-19T02:34:06.013Z,13.30
2023-01-19T02:36:44.372Z,10.17
2023-01-19T02:39:11.983Z,16.63
2023-01-19T02:41:43.232Z,13.70
2023-01-19T02:44:11.638Z,13.67
2023-01-19T02:46:38.892Z,12.27
2023-01-19T02:49:05.606Z,15.10
2023-01-19T02:51:33.211Z,11.60
2023-01-19T02:54:31.579Z,9.63
2023-01-19T02:57:14.258Z,13.50
2023-01-19T03:00:01.531Z,14.80
2023-01-19T03:02:40.371Z,16.20
2023-01-19T03:05:26.564Z,15.13
2023-01-19T03:08:05.256Z,12.63
2023-01-19T03:10:39.786Z,13.27
2023-01-19T03:13:32.831Z,10.33
2023-01-19T03:16:13.725Z,13.53
2023-01-19T03:18:46.045Z,9.53
2023-01-19T03:21:16.047Z,8.17
2023-01-19T03:23:45.529Z,10.43
2023-01-19T03:26:18.089Z,9.97
2023-01-19T03:28:48.456Z,10.53
2023-01-19T03:31:23.902Z,9.50
2023-01-19T03:33:56.748Z,9.83
2023-01-19T03:36:47.637Z,9.83
2023-01-19T03:39:21.421Z,9.83
2023-01-19T03:41:52.174Z,11.57
2023-01-19T03:44:18.974Z,8.90
2023-01-19T03:46:47.923Z,9.10
2023-01-19T03:49:14.741Z,10.43
2023-01-19T03:51:41.753Z,9.83
2023-01-19T03:54:10.305Z,10.33
2023-01-19T03:56:37.509Z,8.30
2023-01-19T03:59:07.391Z,9.63
2023-01-19T04:01:34.158Z,9.47
2023-01-19T04:04:00.979Z,10.47
2023-01-19T04:06:28.114Z,11.43
2023-01-19T04:08:54.924Z,13.97
2023-01-19T04:11:21.617Z,12.20
2023-01-19T04:13:48.257Z,11.50
2023-01-19T04:16:19.843Z,16.87
2023-01-19T04:18:47.373Z,11.27
2023-01-19T04:21:14.593Z,11.33
2023-01-19T04:23:41.262Z,8.40
2023-01-19T04:26:08.554Z,10.63
2023-01-19T04:28:37.088Z,9.93
2023-01-19T04:31:05.166Z,8.83
2023-01-19T04:33:31.957Z,13.47
2023-01-19T04:35:58.708Z,9.10
2023-01-19T04:38:26.234Z,7.90
2023-01-19T04:40:53.882Z,10.73
2023-01-19T04:43:21.392Z,8.60
2023-01-19T04:45:49.000Z,10.37
2023-01-19T04:48:18.280Z,12.30
2023-01-19T04:50:45.096Z,8.43
2023-01-19T04:53:13.715Z,9.80
2023-01-19T04:55:40.449Z,14.93
2023-01-19T04:58:07.102Z,13.33
2023-01-19T05:00:33.865Z,8.23
2023-01-19T05:03:01.627Z,8.83
2023-01-19T05:05:29.080Z,9.80
2023-01-19T05:07:56.061Z,7.43
2023-01-19T05:10:23.685Z,6.53
2023-01-19T05:12:51.128Z,10.13
2023-01-19T05:15:17.812Z,7.63
2023-01-19T05:17:45.323Z,7.57
2023-01-19T05:20:15.724Z,10.57
2023-01-19T05:22:43.170Z,8.97
2023-01-19T05:25:09.957Z,8.33
2023-01-19T05:27:37.591Z,10.17
2023-01-19T05:30:05.478Z,11.50
2023-01-19T05:32:32.437Z,9.97
2023-01-19T05:34:59.399Z,8.57
2023-01-19T05:37:26.056Z,10.43
2023-01-19T05:39:53.941Z,9.70
2023-01-19T05:42:20.995Z,9.20
2023-01-19T05:44:47.664Z,12.43
2023-01-19T05:47:14.433Z,9.63
2023-01-19T05:49:41.110Z,10.53
2023-01-19T05:52:07.893Z,9.90
2023-01-19T05:54:34.647Z,11.33
2023-01-19T05:57:02.369Z,9.93
2023-01-19T05:59:29.136Z,11.57
2023-01-19T06:01:55.838Z,10.37
2023-01-19T06:04:22.711Z,10.63
2023-01-19T06:06:49.986Z,15.43
2023-01-19T06:09:17.332Z,12.33
2023-01-19T06:11:45.127Z,13.30
2023-01-19T06:14:12.025Z,14.20
2023-01-19T06:16:38.797Z,15.43
2023-01-19T06:19:05.542Z,12.60
2023-01-19T06:21:33.453Z,14.03
2023-01-19T06:24:00.395Z,16.90
2023-01-19T06:26:27.163Z,11.77
2023-01-19T06:28:53.789Z,13.27
2023-01-19T06:31:20.477Z,14.07
2023-01-19T06:33:47.493Z,14.57
2023-01-19T06:36:14.158Z,11.00
2023-01-19T06:38:40.793Z,10.10
2023-01-19T06:41:07.441Z,14.97
2023-01-19T06:43:34.134Z,13.10
2023-01-19T06:46:01.069Z,12.93
2023-01-19T06:48:28.016Z,11.90
2023-01-19T06:50:55.877Z,13.93
2023-01-19T06:53:23.367Z,13.00
2023-01-19T06:55:50.068Z,16.30
2023-01-19T06:58:17.194Z,15.07
2023-01-19T07:00:44.086Z,12.37
2023-01-19T07:03:19.651Z,11.27
2023-01-19T07:05:46.798Z,12.00
2023-01-19T07:08:15.620Z,10.17
2023-01-19T07:11:26.947Z,14.07
2023-01-19T07:13:29.081Z,11.85
2023-01-19T07:15:55.919Z,13.70
2023-01-19T07:18:22.563Z,12.07
2023-01-19T07:20:49.260Z,11.30
2023-01-19T07:23:16.405Z,12.60
2023-01-19T07:25:46.841Z,12.00
2023-01-19T07:28:15.612Z,12.43
2023-01-19T07:30:43.586Z,13.30
2023-01-19T07:33:10.281Z,13.67
2023-01-19T07:35:36.936Z,15.63
2023-01-19T07:38:04.046Z,15.17
2023-01-19T07:40:30.796Z,15.17
2023-01-19T07:42:57.404Z,12.50
2023-01-19T07:45:24.030Z,14.20
2023-01-19T07:47:51.008Z,13.43
2023-01-19T07:50:21.258Z,11.77
2023-01-19T07:52:50.612Z,12.73
2023-01-19T07:55:17.505Z,13.27
2023-01-19T07:57:44.235Z,15.37
2023-01-19T08:00:11.492Z,13.47
2023-01-19T08:02:41.268Z,13.97
2023-01-19T08:05:08.520Z,13.60
2023-01-19T08:07:35.555Z,17.87
2023-01-19T08:10:02.371Z,14.47
2023-01-19T08:12:29.438Z,15.07
2023-01-19T08:14:56.115Z,13.83
2023-01-19T08:17:22.742Z,16.97
2023-01-19T08:19:49.407Z,15.57
2023-01-19T08:22:16.025Z,15.80
2023-01-19T08:24:42.726Z,15.53
2023-01-19T08:27:09.947Z,14.67
2023-01-19T08:29:36.912Z,19.17
2023-01-19T08:32:03.740Z,12.70
2023-01-19T08:34:31.166Z,16.13
2023-01-19T08:36:58.630Z,14.00
2023-01-19T08:39:25.669Z,12.97
2023-01-19T08:41:53.055Z,16.00
2023-01-19T08:44:20.098Z,14.40
2023-01-19T08:46:47.425Z,13.37
2023-01-19T08:49:14.139Z,14.73
2023-01-19T08:51:40.866Z,11.77
2023-01-19T08:54:07.483Z,14.27
2023-01-19T08:56:34.120Z,11.37
2023-01-19T08:59:08.985Z,11.93
2023-01-19T09:01:37.300Z,14.93
2023-01-19T09:04:04.499Z,13.23
2023-01-19T09:06:31.353Z,13.73
2023-01-19T09:08:58.167Z,13.53
2023-01-19T09:11:24.916Z,12.20
2023-01-19T09:13:51.636Z,12.73
2023-01-19T09:16:18.437Z,13.57
2023-01-19T09:18:45.959Z,11.13
2023-01-19T09:21:13.748Z,11.43
2023-01-19T09:23:40.381Z,9.57
2023-01-19T09:26:07.255Z,11.50
2023-01-19T09:28:34.318Z,15.10
2023-01-19T09:31:05.462Z,9.30
2023-01-19T09:33:32.165Z,8.47
2023-01-19T09:35:58.931Z,9.93
2023-01-19T09:38:26.939Z,10.70
2023-01-19T09:40:56.043Z,10.37
2023-01-19T09:43:48.702Z,9.90
2023-01-19T09:46:18.292Z,9.50
2023-01-19T09:48:59.680Z,12.23
2023-01-19T09:51:34.299Z,13.17
2023-01-19T09:54:15.741Z,9.90
2023-01-19T09:56:43.787Z,13.90
2023-01-19T09:59:23.030Z,16.17
2023-01-19T10:02:27.520Z,13.43
2023-01-19T10:05:23.474Z,11.97
2023-01-19T10:07:54.321Z,10.13
2023-01-19T10:10:24.497Z,9.67
2023-01-19T10:13:29.650Z,10.40
2023-01-19T10:16:06.955Z,8.87
2023-01-19T10:18:48.092Z,8.90
2023-01-19T10:21:19.798Z,8.50
2023-01-19T10:23:55.308Z,9.17
2023-01-19T10:26:40.429Z,9.93
2023-01-19T10:29:15.731Z,8.73
2023-01-19T10:31:44.046Z,9.27
2023-01-19T10:34:21.507Z,9.83
2023-01-19T10:36:56.034Z,10.07
2023-01-19T10:39:22.897Z,7.63
2023-01-19T10:41:51.903Z,8.57
2023-01-19T10:44:25.457Z,7.77
2023-01-19T10:46:55.007Z,8.63
2023-01-19T10:49:36.801Z,9.07
2023-01-19T10:52:06.625Z,7.63
2023-01-19T10:54:36.298Z,8.00
2023-01-19T10:57:07.161Z,7.75
2023-01-19T10:59:50.918Z,7.43
2023-01-19T11:02:20.999Z,7.30
2023-01-19T11:04:51.248Z,9.50
2023-01-19T11:07:34.946Z,7.97
2023-01-19T11:10:21.201Z,6.87
2023-01-19T11:13:01.149Z,8.83
2023-01-19T11:15:53.873Z,8.20
2023-01-19T11:18:33.369Z,10.13
2023-01-19T11:21:06.338Z,7.90
2023-01-19T11:23:54.892Z,8.23
2023-01-19T11:26:33.958Z,7.20
2023-01-19T11:29:03.402Z,6.40
2023-01-19T11:31:31.192Z,6.70
2023-01-19T11:34:23.667Z,7.67
2023-01-19T11:37:06.208Z,6.80
2023-01-19T11:39:46.433Z,6.73
2023-01-19T11:42:14.622Z,9.27
2023-01-19T11:45:03.165Z,8.13
2023-01-19T11:47:43.573Z,7.73
2023-01-19T11:50:23.671Z,8.47
2023-01-19T11:52:57.711Z,5.70
2023-01-19T11:55:27.480Z,5.83
2023-01-19T11:57:54.793Z,6.07
2023-01-19T12:00:34.087Z,6.50
2023-01-19T12:03:26.582Z,6.43
2023-01-19T12:05:58.970Z,4.13
2023-01-19T12:08:30.586Z,7.97
2023-01-19T12:10:59.814Z,6.37
2023-01-19T12:13:27.604Z,8.47
2023-01-19T12:16:00.147Z,5.13
2023-01-19T12:18:41.206Z,6.17
2023-01-19T12:21:08.504Z,6.70
2023-01-19T12:24:04.385Z,8.00
2023-01-19T12:27:09.861Z,7.77
2023-01-19T12:29:36.931Z,5.13
2023-01-19T12:32:17.002Z,8.33
2023-01-19T12:34:48.666Z,10.23
2023-01-19T12:37:30.275Z,4.87
2023-01-19T12:40:05.536Z,4.53
2023-01-19T12:42:33.959Z,6.63
2023-01-19T12:45:06.039Z,6.00
2023-01-19T12:47:33.437Z,7.20
2023-01-19T12:50:06.904Z,6.73
2023-01-19T12:52:51.357Z,4.93
2023-01-19T12:55:23.211Z,9.50
2023-01-19T12:58:13.425Z,5.23
2023-01-19T13:00:42.781Z,5.67
2023-01-19T13:03:18.163Z,3.77
2023-01-19T13:05:44.885Z,6.00
2023-01-19T13:08:12.450Z,6.17
2023-01-19T13:10:59.594Z,5.67
2023-01-19T13:13:36.818Z,6.80
2023-01-19T13:16:18.856Z,9.80
2023-01-19T13:18:51.457Z,6.67
2023-01-19T13:21:30.613Z,5.43
2023-01-19T13:23:59.753Z,4.63
2023-01-19T13:26:36.263Z,6.33
2023-01-19T13:29:07.751Z,4.80
2023-01-19T13:31:36.464Z,4.87
2023-01-19T13:34:09.560Z,4.70
2023-01-19T13:36:40.396Z,5.73
2023-01-19T13:39:18.583Z,4.73
2023-01-19T13:41:46.874Z,5.37
2023-01-19T13:44:23.814Z,4.53
2023-01-19T13:46:52.415Z,4.63
2023-01-19T13:49:40.297Z,5.77
2023-01-19T13:52:14.001Z,6.23
2023-01-19T13:54:50.973Z,7.73
2023-01-19T13:57:31.995Z,4.10
2023-01-19T14:00:06.825Z,6.90
2023-01-19T14:02:41.922Z,5.90
2023-01-19T14:05:44.627Z,5.03
2023-01-19T14:08:15.156Z,6.77
2023-01-19T14:10:43.272Z,6.67
2023-01-19T14:13:20.073Z,4.87
2023-01-19T14:15:49.822Z,12.90
2023-01-19T14:18:16.473Z,4.17
2023-01-19T14:20:53.592Z,4.70
2023-01-19T14:23:50.903Z,8.00
2023-01-19T14:26:49.542Z,4.07
2023-01-19T14:29:26.932Z,7.07
2023-01-19T14:32:05.244Z,4.53
2023-01-19T14:34:39.188Z,6.60
2023-01-19T14:37:30.287Z,7.50
2023-01-19T14:40:17.092Z,5.83
2023-01-19T14:43:03.136Z,10.00
2023-01-19T14:45:41.267Z,9.73
2023-01-19T14:48:19.323Z,7.00
2023-01-19T14:51:02.063Z,4.43
2023-01-19T14:53:36.506Z,6.97
2023-01-19T14:56:05.257Z,7.07
2023-01-19T14:58:34.167Z,7.80
2023-01-19T15:01:01.424Z,4.23
2023-01-19T15:03:44.693Z,5.07
2023-01-19T15:06:17.858Z,4.77
2023-01-19T15:08:45.697Z,4.50
2023-01-19T15:11:25.414Z,5.67
2023-01-19T15:13:52.606Z,4.63
2023-01-19T15:16:19.902Z,3.63
2023-01-19T15:18:46.696Z,5.97
2023-01-19T15:21:20.035Z,9.07
2023-01-19T15:23:47.547Z,6.97
2023-01-19T15:26:17.630Z,2.80
2023-01-19T15:28:45.586Z,4.63
2023-01-19T15:31:22.175Z,5.23
2023-01-19T15:33:49.007Z,5.77
2023-01-19T15:36:18.512Z,3.83
2023-01-19T15:38:45.968Z,5.90
2023-01-19T15:41:23.661Z,3.37
2023-01-19T15:43:50.848Z,6.80
2023-01-19T15:46:20.655Z,4.47
2023-01-19T15:48:48.307Z,4.07
2023-01-19T15:51:17.255Z,4.67
2023-01-19T15:53:44.851Z,5.47
2023-01-19T15:56:16.886Z,4.97
2023-01-19T15:58:44.657Z,5.30
2023-01-19T16:01:21.330Z,5.50
2023-01-19T16:03:48.941Z,5.57
2023-01-19T16:06:16.481Z,4.47
2023-01-19T16:08:43.169Z,4.47
2023-01-19T16:11:12.884Z,7.13
2023-01-19T16:13:39.825Z,5.17
2023-01-19T16:16:09.743Z,7.50
2023-01-19T16:18:36.439Z,4.00
2023-01-19T16:21:03.308Z,9.00
2023-01-19T16:23:30.018Z,7.20
2023-01-19T16:25:58.851Z,5.03
2023-01-19T16:28:26.841Z,4.70
2023-01-19T16:30:53.868Z,6.50
2023-01-19T16:33:20.630Z,5.80
2023-01-19T16:35:47.330Z,9.63
2023-01-19T16:38:14.503Z,7.40
2023-01-19T16:40:46.540Z,7.00
2023-01-19T16:43:14.429Z,20.17
2023-01-19T16:46:00.695Z,22.03
2023-01-19T16:48:27.602Z,31.17
2023-01-19T16:50:59.559Z,23.40
2023-01-19T16:53:26.865Z,15.47
2023-01-19T16:55:53.769Z,8.73
2023-01-19T16:58:20.510Z,7.07
2023-01-19T17:00:47.282Z,10.10
2023-01-19T17:03:14.392Z,5.03
2023-01-19T17:05:41.037Z,7.33
2023-01-19T17:08:07.683Z,6.80
2023-01-19T17:10:36.377Z,7.90
2023-01-19T17:13:03.903Z,11.80
2023-01-19T17:15:30.986Z,8.10
2023-01-19T17:17:57.596Z,7.23
2023-01-19T17:20:24.256Z,9.70
2023-01-19T17:22:50.993Z,7.80
2023-01-19T17:25:17.664Z,6.23
2023-01-19T17:27:44.329Z,6.27
2023-01-19T17:30:11.766Z,6.40
2023-01-19T17:32:38.594Z,7.03
2023-01-19T17:35:05.660Z,6.57
2023-01-19T17:37:32.282Z,8.17
2023-01-19T17:39:58.977Z,9.37
2023-01-19T17:42:25.638Z,9.30
2023-01-19T17:44:52.318Z,8.87
2023-01-19T17:47:24.525Z,17.93
2023-01-19T17:49:51.386Z,9.43
2023-01-19T17:52:18.036Z,9.57
2023-01-19T17:54:44.685Z,10.23
2023-01-19T17:57:11.330Z,8.57
2023-01-19T17:59:40.843Z,10.70
2023-01-19T18:02:09.187Z,8.27
2023-01-19T18:04:38.725Z,10.87
2023-01-19T18:07:05.842Z,10.57
2023-01-19T18:09:32.547Z,8.83
2023-01-19T18:11:59.245Z,10.87
2023-01-19T18:14:25.915Z,13.80
2023-01-19T18:16:52.544Z,9.73
2023-01-19T18:19:22.088Z,10.47
2023-01-19T18:21:48.875Z,12.47
2023-01-19T18:24:15.538Z,8.07
2023-01-19T18:26:42.620Z,9.07
2023-01-19T18:29:09.369Z,8.80
2023-01-19T18:31:36.124Z,10.70
2023-01-19T18:34:03.069Z,10.03
2023-01-19T18:36:31.940Z,9.80
2023-01-19T18:38:58.603Z,14.87
2023-01-19T18:41:25.263Z,12.47
2023-01-19T18:43:53.469Z,8.87
2023-01-19T18:46:21.177Z,11.97
2023-01-19T18:48:47.988Z,10.50
2023-01-19T18:51:15.842Z,13.17
2023-01-19T18:53:43.705Z,9.97
2023-01-19T18:56:15.707Z,10.67
2023-01-19T18:58:42.715Z,13.07
2023-01-19T19:01:23.813Z,11.80
2023-01-19T19:03:50.982Z,9.73
2023-01-19T19:06:20.527Z,9.93
2023-01-19T19:08:49.183Z,12.40
2023-01-19T19:11:15.918Z,13.47
2023-01-19T19:13:43.151Z,9.60
2023-01-19T19:16:11.414Z,8.93
2023-01-19T19:18:38.909Z,9.63
2023-01-19T19:21:10.959Z,9.67
2023-01-19T19:23:38.579Z,10.03
2023-01-19T19:26:07.902Z,10.57
2023-01-19T19:28:36.174Z,8.37
2023-01-19T19:31:05.085Z,10.60
2023-01-19T19:33:32.383Z,8.00
2023-01-19T19:35:59.766Z,10.30
2023-01-19T19:38:27.653Z,9.57
2023-01-19T19:40:57.078Z,15.30
2023-01-19T19:43:24.826Z,19.13
2023-01-19T19:46:06.180Z,14.77
2023-01-19T19:48:33.225Z,11.83
2023-01-19T19:51:18.476Z,12.33
2023-01-19T19:53:46.479Z,12.83
2023-01-19T19:56:13.532Z,12.50
2023-01-19T19:58:42.550Z,21.87
2023-01-19T20:01:15.485Z,15.47
2023-01-19T20:03:42.397Z,11.73
2023-01-19T20:06:12.290Z,16.57
2023-01-19T20:08:39.228Z,13.87
2023-01-19T20:11:13.952Z,14.17
2023-01-19T20:13:42.188Z,12.43
2023-01-19T20:16:14.300Z,13.80
2023-01-19T20:18:43.375Z,11.37
2023-01-19T20:21:15.387Z,12.77
2023-01-19T20:23:43.116Z,11.30
2023-01-19T20:26:11.954Z,10.93
2023-01-19T20:28:39.037Z,8.37
2023-01-19T20:31:25.175Z,9.83
2023-01-19T20:33:53.068Z,11.67
2023-01-19T20:36:21.977Z,11.67
2023-01-19T20:38:48.614Z,10.33
2023-01-19T20:41:15.937Z,9.87
2023-01-19T20:43:42.623Z,10.37
2023-01-19T20:46:09.669Z,11.13
2023-01-19T20:48:36.721Z,12.17
2023-01-19T20:51:09.091Z,12.30
2023-01-19T20:53:36.678Z,14.47
2023-01-19T20:56:06.202Z,9.77
2023-01-19T20:58:33.397Z,10.93
2023-01-19T21:01:00.142Z,12.13
2023-01-19T21:03:26.949Z,8.17
2023-01-19T21:05:53.631Z,10.73
2023-01-19T21:08:20.357Z,10.77
2023-01-19T21:10:47.119Z,13.73
2023-01-19T21:13:13.994Z,10.20
2023-01-19T21:15:40.784Z,10.37
2023-01-19T21:18:07.462Z,17.40
2023-01-19T21:20:34.197Z,11.93
2023-01-19T21:23:00.915Z,10.73
2023-01-19T21:25:27.639Z,10.67
2023-01-19T21:27:54.319Z,13.90
2023-01-19T21:30:21.032Z,15.43
2023-01-19T21:32:47.733Z,12.23
2023-01-19T21:35:14.869Z,12.60
2023-01-19T21:37:41.856Z,16.47
2023-01-19T21:40:09.523Z,15.93
2023-01-19T21:42:36.205Z,10.87
2023-01-19T21:45:03.110Z,10.53
2023-01-19T21:47:29.808Z,10.63
2023-01-19T21:49:56.492Z,8.17
2023-01-19T21:52:23.167Z,10.67
2023-01-19T21:54:49.926Z,10.77
2023-01-19T21:57:19.541Z,10.27
2023-01-19T21:59:46.416Z,10.60
2023-01-19T22:02:13.269Z,12.87
2023-01-19T22:04:40.697Z,11.77
2023-01-19T22:07:07.449Z,13.80
2023-01-19T22:09:35.397Z,10.90
2023-01-19T22:12:02.376Z,10.13
2023-01-19T22:14:29.557Z,11.60
2023-01-19T22:16:56.403Z,9.10
2023-01-19T22:19:23.198Z,12.27
2023-01-19T22:21:49.946Z,10.13
2023-01-19T22:24:34.283Z,9.47
2023-01-19T22:27:00.932Z,11.13
2023-01-19T22:29:27.757Z,9.73
2023-01-19T22:31:54.469Z,12.40
2023-01-19T22:34:21.151Z,11.93
2023-01-19T22:36:47.879Z,11.57
2023-01-19T22:39:14.522Z,9.10
2023-01-19T22:41:43.984Z,9.53
2023-01-19T22:44:13.746Z,11.00
2023-01-19T22:46:40.685Z,9.73
2023-01-19T22:49:08.449Z,10.13
2023-01-19T22:51:36.018Z,10.20
2023-01-19T22:54:03.277Z,12.53
2023-01-19T22:56:32.553Z,8.43
2023-01-19T22:58:59.702Z,9.17
2023-01-19T23:01:28.967Z,10.43
2023-01-19T23:03:56.347Z,13.13
2023-01-19T23:06:25.726Z,9.27
2023-01-19T23:08:53.825Z,7.70
2023-01-19T23:11:22.946Z,11.33
2023-01-19T23:13:50.686Z,13.13
2023-01-19T23:16:17.525Z,12.27
2023-01-19T23:18:44.886Z,13.83
2023-01-19T23:21:17.881Z,11.90
2023-01-19T23:23:45.733Z,10.13
2023-01-19T23:26:20.674Z,11.33
2023-01-19T23:28:48.143Z,11.93
2023-01-19T23:31:23.358Z,10.97
2023-01-19T23:33:55.524Z,13.10
2023-01-19T23:36:24.069Z,9.83
2023-01-19T23:38:58.328Z,8.30
2023-01-19T23:41:27.890Z,8.47
2023-01-19T23:43:54.638Z,8.80
2023-01-19T23:46:21.864Z,11.00
2023-01-19T23:48:48.817Z,13.07
2023-01-19T23:51:18.813Z,8.90
2023-01-19T23:53:46.029Z,14.97
2023-01-19T23:56:17.381Z,15.70
2023-01-19T23:58:46.068Z,10.93
